createdAt,value
2018-04-30T00:01:30.729Z,60.78
2018-04-30T00:03:59.075Z,61.14
2018-04-30T00:06:27.306Z,60.80
2018-04-30T00:08:55.569Z,60.72
2018-04-30T00:11:23.848Z,61.02
2018-04-30T00:13:52.118Z,61.15
2018-04-30T00:16:20.417Z,61.31
2018-04-30T00:18:48.678Z,61.38
2018-04-30T00:21:16.986Z,61.09
2018-04-30T00:23:45.765Z,60.56
2018-04-30T00:26:14.350Z,60.10
2018-04-30T00:28:42.633Z,59.67
2018-04-30T00:31:10.937Z,59.48
2018-04-30T00:33:39.288Z,59.13
2018-04-30T00:36:07.511Z,58.85
2018-04-30T00:38:35.793Z,58.77
2018-04-30T00:41:04.096Z,58.54
2018-04-30T00:43:32.410Z,58.50
2018-04-30T00:46:00.734Z,58.11
2018-04-30T00:48:29.047Z,58.54
2018-04-30T00:50:57.931Z,58.79
2018-04-30T00:53:26.330Z,59.47
2018-04-30T00:55:54.635Z,59.56
2018-04-30T00:58:22.918Z,59.84
2018-04-30T01:00:51.185Z,60.29
2018-04-30T01:03:20.161Z,60.55
2018-04-30T01:05:48.389Z,60.67
2018-04-30T01:08:16.686Z,60.55
2018-04-30T01:10:44.941Z,60.21
2018-04-30T01:13:14.166Z,60.37
2018-04-30T01:15:42.419Z,60.50
2018-04-30T01:18:10.703Z,60.68
2018-04-30T01:20:38.954Z,60.77
2018-04-30T01:23:07.257Z,61.13
2018-04-30T01:25:35.558Z,61.31
2018-04-30T01:28:03.814Z,61.90
2018-04-30T01:30:32.095Z,61.87
2018-04-30T01:33:00.339Z,62.54
2018-04-30T01:35:28.606Z,63.03
2018-04-30T01:37:56.894Z,62.97
2018-04-30T01:40:25.184Z,63.08
2018-04-30T01:42:53.427Z,62.72
2018-04-30T01:45:21.766Z,62.93
2018-04-30T01:47:50.278Z,63.08
2018-04-30T01:50:18.596Z,63.60
2018-04-30T01:52:46.850Z,63.54
2018-04-30T01:55:15.165Z,63.97
2018-04-30T01:57:43.425Z,63.79
2018-04-30T02:00:11.703Z,63.70
2018-04-30T02:02:40.010Z,63.29
2018-04-30T02:05:08.268Z,63.25
2018-04-30T02:07:36.542Z,63.27
2018-04-30T02:10:04.842Z,63.45
2018-04-30T02:12:33.161Z,63.97
2018-04-30T02:15:01.443Z,64.58
2018-04-30T02:17:29.714Z,65.02
2018-04-30T02:19:58.010Z,65.12
2018-04-30T02:22:26.326Z,65.07
2018-04-30T02:24:54.559Z,65.64
2018-04-30T02:27:22.861Z,66.42
2018-04-30T02:29:51.111Z,67.12
2018-04-30T02:32:19.427Z,68.03
2018-04-30T02:34:47.704Z,68.39
2018-04-30T02:37:16.142Z,67.97
2018-04-30T02:39:44.369Z,68.13
2018-04-30T02:42:12.686Z,68.13
2018-04-30T02:44:40.990Z,68.32
2018-04-30T02:47:09.239Z,68.89
2018-04-30T02:49:37.507Z,69.35
2018-04-30T02:52:05.813Z,69.50
2018-04-30T02:54:34.184Z,69.81
2018-04-30T02:57:02.425Z,69.54
2018-04-30T02:59:30.709Z,70.06
2018-04-30T03:01:58.997Z,70.36
2018-04-30T03:04:27.260Z,70.08
2018-04-30T03:06:55.511Z,70.26
2018-04-30T03:09:23.809Z,70.12
2018-04-30T03:11:52.085Z,69.75
2018-04-30T03:14:20.377Z,70.41
2018-04-30T03:16:48.619Z,69.77
2018-04-30T03:19:16.886Z,69.83
2018-04-30T03:21:45.165Z,70.03
2018-04-30T03:24:13.468Z,70.41
2018-04-30T03:26:41.724Z,69.46
2018-04-30T03:29:10.017Z,69.83
2018-04-30T03:31:38.276Z,68.88
2018-04-30T03:34:06.563Z,69.17
2018-04-30T03:36:34.907Z,69.08
2018-04-30T03:39:03.171Z,70.02
2018-04-30T03:41:31.458Z,69.74
2018-04-30T03:43:59.739Z,69.37
2018-04-30T03:46:28.022Z,69.28
2018-04-30T03:48:56.277Z,69.29
2018-04-30T03:51:24.545Z,68.67
2018-04-30T03:53:52.806Z,68.77
2018-04-30T03:56:21.090Z,68.93
2018-04-30T03:58:49.334Z,68.54
2018-04-30T04:01:29.281Z,68.62
2018-04-30T04:04:09.278Z,68.20
2018-04-30T04:06:49.205Z,68.35
2018-04-30T04:09:17.458Z,68.25
2018-04-30T04:11:45.761Z,67.91
2018-04-30T04:14:14.114Z,67.92
2018-04-30T04:16:42.390Z,68.16
2018-04-30T04:19:10.846Z,67.74
2018-04-30T04:21:39.115Z,67.73
2018-04-30T04:24:07.401Z,67.89
2018-04-30T04:26:35.697Z,67.47
2018-04-30T04:29:03.978Z,67.63
2018-04-30T04:31:32.258Z,67.29
2018-04-30T04:34:00.565Z,67.29
2018-04-30T04:36:28.870Z,66.87
2018-04-30T04:38:57.149Z,66.35
2018-04-30T04:41:25.411Z,65.99
2018-04-30T04:43:53.704Z,65.82
2018-04-30T04:46:21.963Z,65.53
2018-04-30T04:48:50.238Z,65.42
2018-04-30T04:51:18.510Z,65.12
2018-04-30T04:53:46.804Z,65.03
2018-04-30T04:56:15.063Z,64.90
2018-04-30T04:58:43.355Z,65.01
2018-04-30T05:01:11.599Z,65.34
2018-04-30T05:03:39.897Z,65.60
2018-04-30T05:06:08.177Z,65.06
2018-04-30T05:08:36.522Z,65.57
2018-04-30T05:11:04.785Z,65.89
2018-04-30T05:13:33.096Z,65.29
2018-04-30T05:16:01.352Z,64.54
2018-04-30T05:18:29.675Z,64.94
2018-04-30T05:20:57.954Z,65.15
2018-04-30T05:23:26.246Z,65.54
2018-04-30T05:25:54.501Z,64.65
2018-04-30T05:28:22.944Z,64.66
2018-04-30T05:30:51.206Z,64.74
2018-04-30T05:33:19.481Z,64.27
2018-04-30T05:35:47.758Z,64.37
2018-04-30T05:38:16.026Z,64.81
2018-04-30T05:40:44.420Z,64.25
2018-04-30T05:43:12.678Z,64.24
2018-04-30T05:45:41.011Z,63.92
2018-04-30T05:48:09.284Z,64.05
2018-04-30T05:50:37.567Z,64.20
2018-04-30T05:53:05.810Z,64.27
2018-04-30T05:55:34.113Z,64.22
2018-04-30T05:58:02.391Z,64.48
2018-04-30T06:00:30.784Z,64.22
2018-04-30T06:02:58.985Z,63.82
2018-04-30T06:05:27.321Z,63.79
2018-04-30T06:07:56.765Z,63.94
2018-04-30T06:10:26.622Z,63.52
2018-04-30T06:12:55.632Z,63.33
2018-04-30T06:15:23.962Z,62.75
2018-04-30T06:17:52.226Z,62.69
2018-04-30T06:20:22.352Z,62.69
2018-04-30T06:22:51.510Z,62.34
2018-04-30T06:25:19.787Z,62.05
2018-04-30T06:27:48.072Z,61.57
2018-04-30T06:30:16.327Z,62.21
2018-04-30T06:32:44.622Z,61.28
2018-04-30T06:35:12.923Z,61.53
2018-04-30T06:37:41.355Z,60.75
2018-04-30T06:40:09.640Z,60.80
2018-04-30T06:42:37.970Z,60.37
2018-04-30T06:45:06.256Z,60.05
2018-04-30T06:47:34.640Z,60.04
2018-04-30T06:50:02.874Z,60.19
2018-04-30T06:52:31.800Z,59.87
2018-04-30T06:55:00.774Z,60.08
2018-04-30T06:57:29.198Z,59.63
2018-04-30T06:59:57.502Z,59.37
2018-04-30T07:02:25.794Z,59.28
2018-04-30T07:04:54.133Z,59.22
2018-04-30T07:07:22.540Z,58.62
2018-04-30T07:09:50.902Z,58.71
2018-04-30T07:12:19.202Z,58.39
2018-04-30T07:14:47.666Z,58.68
2018-04-30T07:17:15.967Z,58.45
2018-04-30T07:19:44.200Z,58.04
2018-04-30T07:22:12.628Z,58.42
2018-04-30T07:24:40.928Z,57.62
2018-04-30T07:27:09.362Z,57.64
2018-04-30T07:29:38.162Z,57.23
2018-04-30T07:32:07.470Z,57.59
2018-04-30T07:34:35.745Z,57.59
2018-04-30T07:37:04.029Z,57.37
2018-04-30T07:39:32.311Z,56.46
2018-04-30T07:42:00.603Z,55.67
2018-04-30T07:44:28.866Z,55.83
2018-04-30T07:46:57.109Z,55.66
2018-04-30T07:49:25.501Z,55.18
2018-04-30T07:51:53.818Z,55.43
2018-04-30T07:54:22.136Z,55.16
2018-04-30T07:56:50.417Z,55.32
2018-04-30T07:59:18.733Z,55.43
2018-04-30T08:01:47.081Z,55.17
2018-04-30T08:04:15.345Z,54.89
2018-04-30T08:06:43.646Z,54.22
2018-04-30T08:09:11.936Z,53.80
2018-04-30T08:11:40.177Z,53.84
2018-04-30T08:14:08.518Z,52.80
2018-04-30T08:16:37.195Z,52.91
2018-04-30T08:19:05.510Z,52.83
2018-04-30T08:21:33.813Z,52.33
2018-04-30T08:24:02.093Z,52.46
2018-04-30T08:26:30.380Z,51.79
2018-04-30T08:28:58.654Z,51.13
2018-04-30T08:31:27.762Z,51.60
2018-04-30T08:33:56.018Z,51.51
2018-04-30T08:36:24.291Z,51.63
2018-04-30T08:38:52.602Z,51.95
2018-04-30T08:41:20.947Z,52.46
2018-04-30T08:43:49.273Z,52.70
2018-04-30T08:46:17.551Z,52.22
2018-04-30T08:48:45.842Z,52.52
2018-04-30T08:51:14.221Z,53.21
2018-04-30T08:53:42.544Z,53.18
2018-04-30T08:56:10.890Z,52.89
2018-04-30T08:58:39.135Z,53.06
2018-04-30T09:01:07.490Z,51.85
2018-04-30T09:03:35.767Z,51.00
2018-04-30T09:06:04.115Z,50.52
2018-04-30T09:08:32.513Z,49.28
2018-04-30T09:11:00.867Z,48.80
2018-04-30T09:13:29.150Z,48.01
2018-04-30T09:15:57.547Z,48.06
2018-04-30T09:18:25.843Z,48.09
2018-04-30T09:20:54.179Z,48.07
2018-04-30T09:23:22.695Z,47.91
2018-04-30T09:25:51.003Z,47.28
2018-04-30T09:28:19.339Z,47.00
2018-04-30T09:30:47.616Z,46.59
2018-04-30T09:33:15.900Z,46.87
2018-04-30T09:35:44.269Z,46.32
2018-04-30T09:38:12.603Z,46.72
2018-04-30T09:40:40.937Z,47.35
2018-04-30T09:43:09.274Z,47.67
2018-04-30T09:45:37.595Z,47.29
2018-04-30T09:48:05.900Z,47.17
2018-04-30T09:50:34.153Z,46.70
2018-04-30T09:53:02.447Z,46.67
2018-04-30T09:55:30.757Z,46.31
2018-04-30T09:57:59.118Z,46.79
2018-04-30T10:00:27.346Z,46.59
2018-04-30T10:02:56.594Z,46.15
2018-04-30T10:05:25.501Z,46.99
2018-04-30T10:07:53.795Z,46.25
2018-04-30T10:10:22.096Z,45.44
2018-04-30T10:12:51.394Z,45.13
2018-04-30T10:15:19.701Z,44.95
2018-04-30T10:17:48.070Z,44.76
2018-04-30T10:20:16.337Z,44.12
2018-04-30T10:22:44.583Z,44.12
2018-04-30T10:25:12.891Z,44.08
2018-04-30T10:27:41.153Z,44.51
2018-04-30T10:30:09.449Z,44.40
2018-04-30T10:32:37.855Z,44.51
2018-04-30T10:35:06.257Z,44.58
2018-04-30T10:37:34.530Z,43.52
2018-04-30T10:40:02.829Z,43.03
2018-04-30T10:42:31.316Z,42.64
2018-04-30T10:44:59.575Z,42.67
2018-04-30T10:47:27.860Z,42.36
2018-04-30T10:49:56.170Z,41.84
2018-04-30T10:52:24.464Z,42.18
2018-04-30T10:54:52.726Z,42.98
2018-04-30T10:57:21.145Z,42.90
2018-04-30T10:59:49.431Z,42.87
2018-04-30T11:02:17.811Z,42.77
2018-04-30T11:04:46.915Z,42.29
2018-04-30T11:07:15.231Z,42.25
2018-04-30T11:09:43.554Z,42.12
2018-04-30T11:12:11.899Z,40.84
2018-04-30T11:14:40.264Z,40.36
2018-04-30T11:17:08.592Z,40.07
2018-04-30T11:19:36.846Z,39.87
2018-04-30T11:22:05.161Z,39.26
2018-04-30T11:24:33.460Z,39.45
2018-04-30T11:27:01.800Z,39.51
2018-04-30T11:29:30.974Z,38.74
2018-04-30T11:31:59.337Z,38.85
2018-04-30T11:34:27.828Z,38.35
2018-04-30T11:36:56.218Z,37.55
2018-04-30T11:39:24.519Z,37.40
2018-04-30T11:41:52.868Z,37.11
2018-04-30T11:44:21.204Z,37.05
2018-04-30T11:46:49.545Z,37.18
2018-04-30T11:49:17.856Z,36.65
2018-04-30T11:51:46.241Z,36.67
2018-04-30T11:54:14.622Z,36.43
2018-04-30T11:56:42.968Z,36.24
2018-04-30T11:59:11.463Z,36.57
2018-04-30T12:01:39.692Z,36.29
2018-04-30T12:04:07.996Z,36.42
2018-04-30T12:06:36.343Z,36.48
2018-04-30T12:09:05.474Z,35.25
2018-04-30T12:11:33.753Z,36.84
2018-04-30T12:14:02.120Z,36.57
2018-04-30T12:16:30.512Z,37.01
2018-04-30T12:18:58.975Z,36.93
2018-04-30T12:21:28.190Z,36.66
2018-04-30T12:23:56.548Z,36.30
2018-04-30T12:26:25.039Z,36.74
2018-04-30T12:28:53.534Z,37.12
2018-04-30T12:31:21.964Z,36.85
2018-04-30T12:33:50.193Z,36.30
2018-04-30T12:36:18.519Z,36.53
2018-04-30T12:38:46.810Z,36.87
2018-04-30T12:41:15.103Z,36.89
2018-04-30T12:43:43.541Z,37.23
2018-04-30T12:46:11.784Z,37.58
2018-04-30T12:48:40.062Z,37.68
2018-04-30T12:51:08.370Z,38.12
2018-04-30T12:53:36.638Z,38.72
2018-04-30T12:56:04.996Z,38.51
2018-04-30T12:58:33.299Z,38.55
2018-04-30T13:01:01.592Z,39.71
2018-04-30T13:03:29.902Z,41.09
2018-04-30T13:05:58.196Z,41.65
2018-04-30T13:08:26.478Z,39.78
2018-04-30T13:10:55.016Z,38.85
2018-04-30T13:13:23.289Z,38.61
2018-04-30T13:15:51.603Z,37.82
2018-04-30T13:18:19.918Z,37.73
2018-04-30T13:20:48.274Z,37.62
2018-04-30T13:23:16.619Z,38.13
2018-04-30T13:25:44.913Z,38.77
2018-04-30T13:28:13.225Z,39.35
2018-04-30T13:30:41.519Z,40.96
2018-04-30T13:33:09.854Z,46.59
2018-04-30T13:35:39.309Z,51.57
2018-04-30T13:38:07.844Z,51.88
2018-04-30T13:40:36.183Z,52.09
2018-04-30T13:43:04.927Z,51.30
2018-04-30T13:45:33.248Z,53.32
2018-04-30T13:48:01.574Z,49.95
2018-04-30T13:50:30.159Z,47.12
2018-04-30T13:52:58.636Z,46.75
2018-04-30T13:55:26.923Z,46.29
2018-04-30T13:57:55.200Z,44.62
2018-04-30T14:00:24.167Z,45.53
2018-04-30T14:02:52.505Z,48.34
2018-04-30T14:05:20.778Z,46.35
2018-04-30T14:07:49.138Z,43.45
2018-04-30T14:10:17.451Z,41.04
2018-04-30T14:12:45.726Z,40.47
2018-04-30T14:15:14.133Z,39.94
2018-04-30T14:17:42.503Z,40.48
2018-04-30T14:20:10.759Z,39.88
2018-04-30T14:22:39.070Z,40.60
2018-04-30T14:25:07.901Z,40.83
2018-04-30T14:27:36.579Z,41.34
2018-04-30T14:30:04.856Z,40.89
2018-04-30T14:32:33.166Z,39.67
2018-04-30T14:35:01.501Z,39.06
2018-04-30T14:37:29.826Z,38.55
2018-04-30T14:39:58.133Z,38.95
2018-04-30T14:42:27.356Z,40.31
2018-04-30T14:44:55.719Z,40.12
2018-04-30T14:47:24.520Z,39.20
2018-04-30T14:49:53.490Z,38.76
2018-04-30T14:52:21.802Z,38.71
2018-04-30T14:54:50.977Z,38.31
2018-04-30T14:57:19.459Z,38.41
2018-04-30T14:59:47.810Z,37.70
2018-04-30T15:02:16.238Z,37.53
2018-04-30T15:04:44.525Z,36.87
2018-04-30T15:07:12.862Z,36.93
2018-04-30T15:09:41.778Z,36.73
2018-04-30T15:12:10.980Z,36.51
2018-04-30T15:14:39.234Z,36.76
2018-04-30T15:17:08.401Z,36.55
2018-04-30T15:19:36.962Z,36.21
2018-04-30T15:22:05.294Z,36.88
2018-04-30T15:24:33.626Z,37.25
2018-04-30T15:27:01.927Z,37.94
2018-04-30T15:29:30.280Z,40.03
2018-04-30T15:31:58.637Z,44.45
2018-04-30T15:34:26.941Z,47.47
2018-04-30T15:36:55.260Z,50.73
2018-04-30T15:39:23.596Z,46.11
2018-04-30T15:41:51.865Z,48.68
2018-04-30T15:44:20.886Z,42.07
2018-04-30T15:46:49.213Z,43.60
2018-04-30T15:49:17.537Z,42.40
2018-04-30T15:51:45.841Z,39.75
2018-04-30T15:54:14.139Z,38.64
2018-04-30T15:56:42.470Z,38.72
2018-04-30T15:59:10.731Z,37.92
2018-04-30T16:01:39.021Z,36.57
2018-04-30T16:04:08.479Z,37.48
2018-04-30T16:06:36.775Z,37.47
2018-04-30T16:09:05.938Z,37.85
2018-04-30T16:11:34.231Z,38.78
2018-04-30T16:14:02.615Z,38.99
2018-04-30T16:16:31.146Z,40.00
2018-04-30T16:18:59.555Z,40.00
2018-04-30T16:21:27.826Z,39.50
2018-04-30T16:23:56.142Z,38.70
2018-04-30T16:26:24.619Z,38.08
2018-04-30T16:28:52.944Z,39.57
2018-04-30T16:31:22.217Z,40.06
2018-04-30T16:33:51.288Z,39.85
2018-04-30T16:36:19.568Z,40.44
2018-04-30T16:38:47.842Z,41.74
2018-04-30T16:41:16.184Z,42.54
2018-04-30T16:43:44.943Z,44.13
2018-04-30T16:46:13.289Z,44.97
2018-04-30T16:48:41.573Z,45.43
2018-04-30T16:51:09.862Z,48.44
2018-04-30T16:53:38.141Z,48.82
2018-04-30T16:56:06.513Z,49.52
2018-04-30T16:58:34.869Z,49.68
2018-04-30T17:01:03.160Z,51.54
2018-04-30T17:03:31.445Z,51.28
2018-04-30T17:05:59.794Z,51.15
2018-04-30T17:08:28.099Z,50.75
2018-04-30T17:10:56.379Z,49.59
2018-04-30T17:13:24.673Z,49.01
2018-04-30T17:15:52.930Z,48.98
2018-04-30T17:18:21.245Z,49.18
2018-04-30T17:20:49.491Z,48.92
2018-04-30T17:23:17.819Z,49.26
2018-04-30T17:25:46.126Z,49.22
2018-04-30T17:28:14.425Z,49.55
2018-04-30T17:30:42.698Z,49.45
2018-04-30T17:33:10.983Z,49.66
2018-04-30T17:35:39.351Z,50.43
2018-04-30T17:38:07.664Z,50.99
2018-04-30T17:40:36.011Z,50.96
2018-04-30T17:43:04.286Z,50.71
2018-04-30T17:45:32.570Z,50.19
2018-04-30T17:48:00.881Z,50.35
2018-04-30T17:50:29.135Z,50.79
2018-04-30T17:52:57.464Z,50.44
2018-04-30T17:55:25.743Z,49.91
2018-04-30T17:57:54.033Z,49.69
2018-04-30T18:00:22.334Z,50.35
2018-04-30T18:02:50.609Z,50.64
2018-04-30T18:05:18.876Z,50.50
2018-04-30T18:07:47.967Z,50.66
2018-04-30T18:10:16.661Z,50.16
2018-04-30T18:12:44.983Z,50.26
2018-04-30T18:15:13.301Z,50.18
2018-04-30T18:17:41.582Z,50.48
2018-04-30T18:20:10.574Z,50.83
2018-04-30T18:22:39.776Z,51.13
2018-04-30T18:25:08.129Z,51.40
2018-04-30T18:27:36.431Z,51.58
2018-04-30T18:30:04.780Z,51.64
2018-04-30T18:32:33.057Z,51.81
2018-04-30T18:35:01.364Z,52.11
2018-04-30T18:37:29.651Z,51.91
2018-04-30T18:39:58.582Z,51.85
2018-04-30T18:42:28.034Z,52.36
2018-04-30T18:44:56.307Z,52.31
2018-04-30T18:47:24.696Z,51.71
2018-04-30T18:49:52.991Z,51.50
2018-04-30T18:52:21.594Z,52.00
2018-04-30T18:54:49.869Z,52.22
2018-04-30T18:57:18.176Z,52.36
2018-04-30T18:59:48.301Z,52.73
2018-04-30T19:02:17.022Z,52.92
2018-04-30T19:04:45.419Z,53.56
2018-04-30T19:07:13.767Z,53.60
2018-04-30T19:09:42.061Z,53.75
2018-04-30T19:12:10.402Z,53.48
2018-04-30T19:14:38.715Z,54.43
2018-04-30T19:17:07.063Z,54.56
2018-04-30T19:19:35.330Z,54.52
2018-04-30T19:22:04.645Z,54.84
2018-04-30T19:24:33.038Z,54.66
2018-04-30T19:27:01.360Z,54.90
2018-04-30T19:29:30.472Z,54.98
2018-04-30T19:31:59.515Z,55.54
2018-04-30T19:34:27.793Z,55.98
2018-04-30T19:36:56.133Z,55.77
2018-04-30T19:39:24.450Z,55.86
2018-04-30T19:41:52.730Z,55.87
2018-04-30T19:44:21.043Z,55.79
2018-04-30T19:46:49.450Z,55.97
2018-04-30T19:49:17.815Z,56.20
2018-04-30T19:51:46.137Z,55.36
2018-04-30T19:54:14.420Z,55.34
2018-04-30T19:56:42.708Z,54.51
2018-04-30T19:59:10.992Z,54.81
2018-04-30T20:01:39.347Z,54.92
2018-04-30T20:04:07.662Z,54.16
2018-04-30T20:06:35.927Z,53.97
2018-04-30T20:09:04.281Z,53.75
2018-04-30T20:11:32.569Z,53.30
2018-04-30T20:14:00.862Z,53.12
2018-04-30T20:16:29.123Z,52.66
2018-04-30T20:18:57.432Z,52.66
2018-04-30T20:21:26.729Z,52.45
2018-04-30T20:23:55.060Z,52.54
2018-04-30T20:26:23.357Z,52.62
2018-04-30T20:28:51.753Z,52.92
2018-04-30T20:31:20.731Z,52.74
2018-04-30T20:33:49.000Z,52.62
2018-04-30T20:36:17.299Z,53.17
2018-04-30T20:38:45.557Z,53.18
2018-04-30T20:41:13.978Z,53.40
2018-04-30T20:43:42.257Z,53.80
2018-04-30T20:46:10.572Z,53.99
2018-04-30T20:48:38.841Z,54.29
2018-04-30T20:51:07.163Z,54.52
2018-04-30T20:53:35.434Z,54.24
2018-04-30T20:56:03.722Z,54.69
2018-04-30T20:58:32.085Z,54.90
2018-04-30T21:01:00.787Z,54.63
2018-04-30T21:03:29.783Z,55.10
2018-04-30T21:05:58.066Z,55.22
2018-04-30T21:08:26.369Z,55.58
2018-04-30T21:10:54.638Z,55.69
2018-04-30T21:13:22.924Z,55.77
2018-04-30T21:15:51.227Z,56.01
2018-04-30T21:18:19.495Z,56.05
2018-04-30T21:20:47.815Z,56.23
2018-04-30T21:23:16.101Z,56.04
2018-04-30T21:25:44.487Z,56.32
2018-04-30T21:28:13.232Z,56.63
2018-04-30T21:30:41.594Z,56.86
2018-04-30T21:33:09.880Z,56.86
2018-04-30T21:35:38.171Z,57.09
2018-04-30T21:38:06.468Z,57.41
2018-04-30T21:40:34.796Z,57.28
2018-04-30T21:43:03.105Z,57.10
2018-04-30T21:45:31.412Z,56.93
2018-04-30T21:47:59.767Z,56.99
2018-04-30T21:50:28.626Z,57.07
2018-04-30T21:52:57.474Z,57.88
2018-04-30T21:55:25.896Z,57.71
2018-04-30T21:57:54.945Z,57.42
2018-04-30T22:00:28.220Z,57.16
2018-04-30T22:02:56.478Z,57.22
2018-04-30T22:05:24.784Z,57.23
2018-04-30T22:07:54.050Z,57.65
2018-04-30T22:10:23.153Z,58.13
2018-04-30T22:12:51.504Z,58.12
2018-04-30T22:15:19.769Z,58.51
2018-04-30T22:17:48.624Z,58.18
2018-04-30T22:20:17.007Z,58.34
2018-04-30T22:22:45.289Z,58.50
2018-04-30T22:25:13.660Z,58.59
2018-04-30T22:27:42.262Z,58.94
2018-04-30T22:30:10.557Z,59.18
2018-04-30T22:32:39.324Z,58.99
2018-04-30T22:35:07.661Z,58.57
2018-04-30T22:37:36.216Z,58.56
2018-04-30T22:40:06.814Z,58.40
2018-04-30T22:42:35.136Z,58.27
2018-04-30T22:45:03.402Z,58.33
2018-04-30T22:47:31.657Z,58.25
2018-04-30T22:49:59.970Z,58.44
2018-04-30T22:52:29.529Z,58.53
2018-04-30T22:54:57.805Z,58.77
2018-04-30T22:57:26.602Z,58.59
2018-04-30T22:59:54.918Z,58.72
2018-04-30T23:02:23.165Z,57.84
2018-04-30T23:04:51.438Z,57.39
2018-04-30T23:07:19.722Z,57.24
2018-04-30T23:09:48.392Z,56.78
2018-04-30T23:12:16.699Z,56.24
2018-04-30T23:14:45.245Z,56.68
2018-04-30T23:17:14.548Z,56.39
2018-04-30T23:19:42.857Z,56.54
2018-04-30T23:22:14.831Z,56.80
2018-04-30T23:24:43.667Z,56.50
2018-04-30T23:27:11.984Z,55.81
2018-04-30T23:29:40.250Z,55.37
2018-04-30T23:32:08.556Z,55.27
2018-04-30T23:34:36.821Z,55.24
2018-04-30T23:37:05.998Z,55.10
2018-04-30T23:39:34.263Z,55.62
2018-04-30T23:42:02.584Z,56.08
2018-04-30T23:44:30.848Z,56.29
2018-04-30T23:46:59.204Z,56.20
2018-04-30T23:49:27.519Z,56.89
2018-04-30T23:51:55.845Z,56.63
2018-04-30T23:54:24.173Z,56.92
2018-04-30T23:56:52.503Z,56.84
2018-04-30T23:59:20.784Z,56.74
